sensor_id;sensor_type;location;lat;lon;timestamp;P1;durP1;ratioP1;P2;durP2;ratioP2
11921;SDS011;6021;51.182;3.160;2024-02-23T00:01:57;2.40;;;1.33;;
11921;SDS011;6021;51.182;3.160;2024-02-23T00:04:26;5.97;;;1.70;;
11921;SDS011;6021;51.182;3.160;2024-02-23T00:06:55;6.10;;;1.50;;
11921;SDS011;6021;51.182;3.160;2024-02-23T00:09:23;3.77;;;1.63;;
11921;SDS011;6021;51.182;3.160;2024-02-23T00:11:51;7.00;;;2.20;;
11921;SDS011;6021;51.182;3.160;2024-02-23T00:14:20;3.87;;;1.70;;
11921;SDS011;6021;51.182;3.160;2024-02-23T00:16:49;4.73;;;1.60;;
11921;SDS011;6021;51.182;3.160;2024-02-23T00:19:17;3.47;;;1.50;;
11921;SDS011;6021;51.182;3.160;2024-02-23T00:21:46;3.03;;;1.37;;
11921;SDS011;6021;51.182;3.160;2024-02-23T00:24:16;5.67;;;1.63;;
11921;SDS011;6021;51.182;3.160;2024-02-23T00:26:48;5.87;;;1.60;;
11921;SDS011;6021;51.182;3.160;2024-02-23T00:29:17;3.83;;;1.97;;
11921;SDS011;6021;51.182;3.160;2024-02-23T00:31:46;5.73;;;1.70;;
11921;SDS011;6021;51.182;3.160;2024-02-23T00:34:15;4.13;;;1.73;;
11921;SDS011;6021;51.182;3.160;2024-02-23T00:36:43;7.30;;;1.90;;
11921;SDS011;6021;51.182;3.160;2024-02-23T00:39:12;3.43;;;1.40;;
11921;SDS011;6021;51.182;3.160;2024-02-23T00:41:40;4.63;;;1.50;;
11921;SDS011;6021;51.182;3.160;2024-02-23T00:44:09;4.43;;;1.50;;
11921;SDS011;6021;51.182;3.160;2024-02-23T00:46:37;5.63;;;1.50;;
11921;SDS011;6021;51.182;3.160;2024-02-23T00:49:05;6.63;;;1.73;;
11921;SDS011;6021;51.182;3.160;2024-02-23T00:51:34;4.07;;;1.60;;
11921;SDS011;6021;51.182;3.160;2024-02-23T00:54:02;2.87;;;1.53;;
11921;SDS011;6021;51.182;3.160;2024-02-23T00:56:31;7.47;;;1.50;;
11921;SDS011;6021;51.182;3.160;2024-02-23T00:59:00;3.60;;;1.33;;
11921;SDS011;6021;51.182;3.160;2024-02-23T01:01:28;6.37;;;1.63;;
11921;SDS011;6021;51.182;3.160;2024-02-23T01:03:58;4.90;;;1.57;;
11921;SDS011;6021;51.182;3.160;2024-02-23T01:06:27;4.30;;;1.40;;
11921;SDS011;6021;51.182;3.160;2024-02-23T01:08:55;6.93;;;1.93;;
11921;SDS011;6021;51.182;3.160;2024-02-23T01:11:23;1.93;;;1.23;;
11921;SDS011;6021;51.182;3.160;2024-02-23T01:13:52;2.27;;;1.20;;
11921;SDS011;6021;51.182;3.160;2024-02-23T01:16:20;6.13;;;1.50;;
11921;SDS011;6021;51.182;3.160;2024-02-23T01:18:49;3.80;;;1.40;;
11921;SDS011;6021;51.182;3.160;2024-02-23T01:21:17;4.23;;;1.50;;
11921;SDS011;6021;51.182;3.160;2024-02-23T01:23:46;2.93;;;1.37;;
11921;SDS011;6021;51.182;3.160;2024-02-23T01:26:14;3.23;;;1.10;;
11921;SDS011;6021;51.182;3.160;2024-02-23T01:28:43;6.73;;;1.83;;
11921;SDS011;6021;51.182;3.160;2024-02-23T01:31:11;2.23;;;1.40;;
11921;SDS011;6021;51.182;3.160;2024-02-23T01:33:39;4.10;;;1.40;;
11921;SDS011;6021;51.182;3.160;2024-02-23T01:36:08;6.37;;;1.53;;
11921;SDS011;6021;51.182;3.160;2024-02-23T01:38:37;6.90;;;1.70;;
11921;SDS011;6021;51.182;3.160;2024-02-23T01:41:05;7.53;;;1.50;;
11921;SDS011;6021;51.182;3.160;2024-02-23T01:43:34;6.10;;;1.80;;
11921;SDS011;6021;51.182;3.160;2024-02-23T01:46:02;7.33;;;1.80;;
11921;SDS011;6021;51.182;3.160;2024-02-23T01:48:32;6.10;;;1.20;;
11921;SDS011;6021;51.182;3.160;2024-02-23T01:51:00;3.97;;;1.50;;
11921;SDS011;6021;51.182;3.160;2024-02-23T01:53:29;3.23;;;1.50;;
11921;SDS011;6021;51.182;3.160;2024-02-23T01:55:58;4.07;;;1.70;;
11921;SDS011;6021;51.182;3.160;2024-02-23T01:58:28;3.67;;;1.60;;
11921;SDS011;6021;51.182;3.160;2024-02-23T02:00:58;4.70;;;1.73;;
11921;SDS011;6021;51.182;3.160;2024-02-23T02:03:26;6.57;;;2.00;;
11921;SDS011;6021;51.182;3.160;2024-02-23T02:05:55;4.03;;;1.37;;
11921;SDS011;6021;51.182;3.160;2024-02-23T02:08:27;2.77;;;1.30;;
11921;SDS011;6021;51.182;3.160;2024-02-23T02:10:55;5.67;;;1.70;;
11921;SDS011;6021;51.182;3.160;2024-02-23T02:13:24;3.87;;;1.60;;
11921;SDS011;6021;51.182;3.160;2024-02-23T02:15:52;3.27;;;1.43;;
11921;SDS011;6021;51.182;3.160;2024-02-23T02:18:20;4.17;;;1.70;;
11921;SDS011;6021;51.182;3.160;2024-02-23T02:20:54;4.03;;;1.53;;
11921;SDS011;6021;51.182;3.160;2024-02-23T02:23:23;6.73;;;1.67;;
11921;SDS011;6021;51.182;3.160;2024-02-23T02:25:59;6.67;;;1.30;;
11921;SDS011;6021;51.182;3.160;2024-02-23T02:28:24;7.07;;;1.90;;
11921;SDS011;6021;51.182;3.160;2024-02-23T02:30:53;4.00;;;1.50;;
11921;SDS011;6021;51.182;3.160;2024-02-23T02:33:22;6.37;;;1.97;;
11921;SDS011;6021;51.182;3.160;2024-02-23T02:35:50;8.10;;;2.13;;
11921;SDS011;6021;51.182;3.160;2024-02-23T02:38:18;4.87;;;1.60;;
11921;SDS011;6021;51.182;3.160;2024-02-23T02:40:47;3.87;;;1.50;;
11921;SDS011;6021;51.182;3.160;2024-02-23T02:43:15;5.03;;;1.50;;
11921;SDS011;6021;51.182;3.160;2024-02-23T02:45:44;4.67;;;1.43;;
11921;SDS011;6021;51.182;3.160;2024-02-23T02:48:12;4.00;;;1.20;;
11921;SDS011;6021;51.182;3.160;2024-02-23T02:50:40;5.33;;;1.50;;
11921;SDS011;6021;51.182;3.160;2024-02-23T02:53:09;5.90;;;1.37;;
11921;SDS011;6021;51.182;3.160;2024-02-23T02:55:43;2.70;;;1.10;;
11921;SDS011;6021;51.182;3.160;2024-02-23T02:58:10;3.07;;;1.40;;
11921;SDS011;6021;51.182;3.160;2024-02-23T03:00:39;6.30;;;1.60;;
11921;SDS011;6021;51.182;3.160;2024-02-23T03:03:08;4.07;;;1.30;;
11921;SDS011;6021;51.182;3.160;2024-02-23T03:05:36;4.33;;;1.50;;
11921;SDS011;6021;51.182;3.160;2024-02-23T03:08:05;3.23;;;1.10;;
11921;SDS011;6021;51.182;3.160;2024-02-23T03:10:34;4.07;;;1.20;;
11921;SDS011;6021;51.182;3.160;2024-02-23T03:13:02;3.57;;;1.10;;
11921;SDS011;6021;51.182;3.160;2024-02-23T03:15:31;3.70;;;1.50;;
11921;SDS011;6021;51.182;3.160;2024-02-23T03:18:00;4.43;;;1.20;;
11921;SDS011;6021;51.182;3.160;2024-02-23T03:20:28;5.43;;;1.33;;
11921;SDS011;6021;51.182;3.160;2024-02-23T03:22:57;3.77;;;1.30;;
11921;SDS011;6021;51.182;3.160;2024-02-23T03:25:25;4.83;;;1.60;;
11921;SDS011;6021;51.182;3.160;2024-02-23T03:27:54;4.30;;;1.60;;
11921;SDS011;6021;51.182;3.160;2024-02-23T03:30:22;2.03;;;1.30;;
11921;SDS011;6021;51.182;3.160;2024-02-23T03:32:50;3.17;;;1.20;;
11921;SDS011;6021;51.182;3.160;2024-02-23T03:35:19;2.87;;;1.20;;
11921;SDS011;6021;51.182;3.160;2024-02-23T03:37:47;2.50;;;1.27;;
11921;SDS011;6021;51.182;3.160;2024-02-23T03:40:15;4.13;;;1.50;;
11921;SDS011;6021;51.182;3.160;2024-02-23T03:42:45;3.63;;;1.60;;
11921;SDS011;6021;51.182;3.160;2024-02-23T03:45:14;6.33;;;1.40;;
11921;SDS011;6021;51.182;3.160;2024-02-23T03:47:42;1.20;;;1.00;;
11921;SDS011;6021;51.182;3.160;2024-02-23T03:50:10;1.33;;;1.07;;
11921;SDS011;6021;51.182;3.160;2024-02-23T03:52:39;2.60;;;1.17;;
11921;SDS011;6021;51.182;3.160;2024-02-23T03:55:07;2.73;;;1.10;;
11921;SDS011;6021;51.182;3.160;2024-02-23T03:57:36;3.23;;;1.30;;
11921;SDS011;6021;51.182;3.160;2024-02-23T04:00:05;2.77;;;1.17;;
11921;SDS011;6021;51.182;3.160;2024-02-23T04:02:34;5.20;;;1.27;;
11921;SDS011;6021;51.182;3.160;2024-02-23T04:05:02;2.03;;;1.10;;
11921;SDS011;6021;51.182;3.160;2024-02-23T04:07:32;6.00;;;1.40;;
11921;SDS011;6021;51.182;3.160;2024-02-23T04:10:00;4.03;;;1.23;;
11921;SDS011;6021;51.182;3.160;2024-02-23T04:12:29;2.53;;;1.30;;
11921;SDS011;6021;51.182;3.160;2024-02-23T04:14:57;2.90;;;1.20;;
11921;SDS011;6021;51.182;3.160;2024-02-23T04:17:26;2.03;;;1.20;;
11921;SDS011;6021;51.182;3.160;2024-02-23T04:19:54;1.83;;;1.20;;
11921;SDS011;6021;51.182;3.160;2024-02-23T04:22:23;3.00;;;1.23;;
11921;SDS011;6021;51.182;3.160;2024-02-23T04:24:51;3.60;;;1.70;;
11921;SDS011;6021;51.182;3.160;2024-02-23T04:27:19;1.73;;;1.60;;
11921;SDS011;6021;51.182;3.160;2024-02-23T04:29:48;1.67;;;1.37;;
11921;SDS011;6021;51.182;3.160;2024-02-23T04:32:16;2.93;;;1.50;;
11921;SDS011;6021;51.182;3.160;2024-02-23T04:34:44;5.77;;;1.77;;
11921;SDS011;6021;51.182;3.160;2024-02-23T04:37:13;2.93;;;1.70;;
11921;SDS011;6021;51.182;3.160;2024-02-23T04:39:43;3.93;;;1.80;;
11921;SDS011;6021;51.182;3.160;2024-02-23T04:42:13;2.37;;;1.67;;
11921;SDS011;6021;51.182;3.160;2024-02-23T04:44:41;5.67;;;1.87;;
11921;SDS011;6021;51.182;3.160;2024-02-23T04:47:10;5.77;;;1.90;;
11921;SDS011;6021;51.182;3.160;2024-02-23T04:49:38;4.10;;;1.70;;
11921;SDS011;6021;51.182;3.160;2024-02-23T04:52:07;2.93;;;1.50;;
11921;SDS011;6021;51.182;3.160;2024-02-23T04:54:35;5.03;;;1.80;;
11921;SDS011;6021;51.182;3.160;2024-02-23T04:57:04;5.43;;;2.10;;
11921;SDS011;6021;51.182;3.160;2024-02-23T04:59:32;4.53;;;1.67;;
11921;SDS011;6021;51.182;3.160;2024-02-23T05:02:01;6.23;;;1.77;;
11921;SDS011;6021;51.182;3.160;2024-02-23T05:04:29;3.23;;;1.30;;
11921;SDS011;6021;51.182;3.160;2024-02-23T05:06:57;5.60;;;1.60;;
11921;SDS011;6021;51.182;3.160;2024-02-23T05:09:26;3.60;;;1.30;;
11921;SDS011;6021;51.182;3.160;2024-02-23T05:11:54;5.57;;;1.83;;
11921;SDS011;6021;51.182;3.160;2024-02-23T05:14:22;4.17;;;1.43;;
11921;SDS011;6021;51.182;3.160;2024-02-23T05:16:51;2.93;;;1.50;;
11921;SDS011;6021;51.182;3.160;2024-02-23T05:19:19;3.90;;;1.40;;
11921;SDS011;6021;51.182;3.160;2024-02-23T05:21:47;3.00;;;1.40;;
11921;SDS011;6021;51.182;3.160;2024-02-23T05:24:16;1.47;;;1.17;;
11921;SDS011;6021;51.182;3.160;2024-02-23T05:26:44;3.87;;;1.27;;
11921;SDS011;6021;51.182;3.160;2024-02-23T05:29:12;5.53;;;1.60;;
11921;SDS011;6021;51.182;3.160;2024-02-23T05:31:49;7.77;;;1.67;;
11921;SDS011;6021;51.182;3.160;2024-02-23T05:34:19;2.93;;;1.50;;
11921;SDS011;6021;51.182;3.160;2024-02-23T05:36:49;2.37;;;1.47;;
11921;SDS011;6021;51.182;3.160;2024-02-23T05:39:17;3.07;;;1.50;;
11921;SDS011;6021;51.182;3.160;2024-02-23T05:41:46;5.43;;;1.50;;
11921;SDS011;6021;51.182;3.160;2024-02-23T05:44:14;4.83;;;1.40;;
11921;SDS011;6021;51.182;3.160;2024-02-23T05:46:43;4.10;;;1.57;;
11921;SDS011;6021;51.182;3.160;2024-02-23T05:49:11;2.93;;;1.57;;
11921;SDS011;6021;51.182;3.160;2024-02-23T05:51:40;4.63;;;1.40;;
11921;SDS011;6021;51.182;3.160;2024-02-23T05:54:09;7.30;;;1.50;;
11921;SDS011;6021;51.182;3.160;2024-02-23T05:56:38;3.23;;;1.40;;
11921;SDS011;6021;51.182;3.160;2024-02-23T05:59:06;2.63;;;1.13;;
11921;SDS011;6021;51.182;3.160;2024-02-23T06:01:34;6.20;;;1.47;;
11921;SDS011;6021;51.182;3.160;2024-02-23T06:04:03;4.60;;;1.70;;
11921;SDS011;6021;51.182;3.160;2024-02-23T06:06:32;3.03;;;1.40;;
11921;SDS011;6021;51.182;3.160;2024-02-23T06:09:00;1.27;;;0.90;;
11921;SDS011;6021;51.182;3.160;2024-02-23T06:11:29;3.57;;;1.40;;
11921;SDS011;6021;51.182;3.160;2024-02-23T06:13:57;4.90;;;1.60;;
11921;SDS011;6021;51.182;3.160;2024-02-23T06:16:26;3.60;;;1.50;;
11921;SDS011;6021;51.182;3.160;2024-02-23T06:18:54;5.33;;;1.60;;
11921;SDS011;6021;51.182;3.160;2024-02-23T06:21:23;3.60;;;1.50;;
11921;SDS011;6021;51.182;3.160;2024-02-23T06:23:51;3.17;;;1.60;;
11921;SDS011;6021;51.182;3.160;2024-02-23T06:26:20;7.40;;;1.83;;
11921;SDS011;6021;51.182;3.160;2024-02-23T06:28:48;3.80;;;1.73;;
11921;SDS011;6021;51.182;3.160;2024-02-23T06:31:16;3.67;;;1.50;;
11921;SDS011;6021;51.182;3.160;2024-02-23T06:33:45;4.10;;;1.50;;
11921;SDS011;6021;51.182;3.160;2024-02-23T06:36:15;8.33;;;2.10;;
11921;SDS011;6021;51.182;3.160;2024-02-23T06:38:49;4.27;;;1.87;;
11921;SDS011;6021;51.182;3.160;2024-02-23T06:41:13;3.27;;;1.63;;
11921;SDS011;6021;51.182;3.160;2024-02-23T06:43:42;4.10;;;1.50;;
11921;SDS011;6021;51.182;3.160;2024-02-23T06:46:10;4.90;;;1.60;;
11921;SDS011;6021;51.182;3.160;2024-02-23T06:48:39;7.13;;;2.03;;
11921;SDS011;6021;51.182;3.160;2024-02-23T06:51:07;3.00;;;1.67;;
11921;SDS011;6021;51.182;3.160;2024-02-23T06:53:36;3.90;;;1.73;;
11921;SDS011;6021;51.182;3.160;2024-02-23T06:56:04;3.97;;;1.87;;
11921;SDS011;6021;51.182;3.160;2024-02-23T06:58:33;1.60;;;1.50;;
11921;SDS011;6021;51.182;3.160;2024-02-23T07:01:02;3.07;;;1.67;;
11921;SDS011;6021;51.182;3.160;2024-02-23T07:03:32;3.47;;;1.57;;
11921;SDS011;6021;51.182;3.160;2024-02-23T07:06:02;2.60;;;1.47;;
11921;SDS011;6021;51.182;3.160;2024-02-23T07:08:31;6.00;;;1.80;;
11921;SDS011;6021;51.182;3.160;2024-02-23T07:11:00;6.00;;;1.70;;
11921;SDS011;6021;51.182;3.160;2024-02-23T07:13:28;4.80;;;1.80;;
11921;SDS011;6021;51.182;3.160;2024-02-23T07:15:57;3.43;;;1.90;;
11921;SDS011;6021;51.182;3.160;2024-02-23T07:18:25;6.63;;;1.87;;
11921;SDS011;6021;51.182;3.160;2024-02-23T07:20:54;5.17;;;1.90;;
11921;SDS011;6021;51.182;3.160;2024-02-23T07:23:23;5.43;;;1.70;;
11921;SDS011;6021;51.182;3.160;2024-02-23T07:25:51;5.40;;;1.70;;
11921;SDS011;6021;51.182;3.160;2024-02-23T07:28:20;3.97;;;1.80;;
11921;SDS011;6021;51.182;3.160;2024-02-23T07:30:49;5.13;;;1.83;;
11921;SDS011;6021;51.182;3.160;2024-02-23T07:33:19;8.53;;;2.20;;
11921;SDS011;6021;51.182;3.160;2024-02-23T07:35:47;5.27;;;2.07;;
11921;SDS011;6021;51.182;3.160;2024-02-23T07:38:16;5.70;;;1.80;;
11921;SDS011;6021;51.182;3.160;2024-02-23T07:40:47;5.77;;;1.93;;
11921;SDS011;6021;51.182;3.160;2024-02-23T07:43:15;3.10;;;1.67;;
11921;SDS011;6021;51.182;3.160;2024-02-23T07:45:44;5.73;;;2.07;;
11921;SDS011;6021;51.182;3.160;2024-02-23T07:48:12;3.37;;;1.60;;
11921;SDS011;6021;51.182;3.160;2024-02-23T07:50:40;5.93;;;2.10;;
11921;SDS011;6021;51.182;3.160;2024-02-23T07:53:10;5.20;;;1.80;;
11921;SDS011;6021;51.182;3.160;2024-02-23T07:55:38;6.57;;;2.03;;
11921;SDS011;6021;51.182;3.160;2024-02-23T07:58:07;4.67;;;1.60;;
11921;SDS011;6021;51.182;3.160;2024-02-23T08:00:35;3.97;;;1.57;;
11921;SDS011;6021;51.182;3.160;2024-02-23T08:03:05;4.57;;;1.60;;
11921;SDS011;6021;51.182;3.160;2024-02-23T08:05:34;5.60;;;1.70;;
11921;SDS011;6021;51.182;3.160;2024-02-23T08:08:03;2.13;;;1.70;;
11921;SDS011;6021;51.182;3.160;2024-02-23T08:10:33;4.47;;;1.50;;
11921;SDS011;6021;51.182;3.160;2024-02-23T08:13:01;3.67;;;1.60;;
11921;SDS011;6021;51.182;3.160;2024-02-23T08:15:30;3.53;;;1.60;;
11921;SDS011;6021;51.182;3.160;2024-02-23T08:17:58;5.50;;;1.60;;
11921;SDS011;6021;51.182;3.160;2024-02-23T08:20:27;5.83;;;1.87;;
11921;SDS011;6021;51.182;3.160;2024-02-23T08:22:55;4.10;;;1.40;;
11921;SDS011;6021;51.182;3.160;2024-02-23T08:25:23;2.67;;;1.53;;
11921;SDS011;6021;51.182;3.160;2024-02-23T08:27:53;3.80;;;1.50;;
11921;SDS011;6021;51.182;3.160;2024-02-23T08:30:23;2.03;;;1.37;;
11921;SDS011;6021;51.182;3.160;2024-02-23T08:32:51;4.43;;;1.53;;
11921;SDS011;6021;51.182;3.160;2024-02-23T08:35:20;2.43;;;1.20;;
11921;SDS011;6021;51.182;3.160;2024-02-23T08:37:48;4.40;;;1.53;;
11921;SDS011;6021;51.182;3.160;2024-02-23T08:40:17;1.93;;;1.50;;
11921;SDS011;6021;51.182;3.160;2024-02-23T08:42:45;3.13;;;1.50;;
11921;SDS011;6021;51.182;3.160;2024-02-23T08:45:14;3.13;;;1.30;;
11921;SDS011;6021;51.182;3.160;2024-02-23T08:47:42;4.40;;;1.50;;
11921;SDS011;6021;51.182;3.160;2024-02-23T08:50:11;4.90;;;1.67;;
11921;SDS011;6021;51.182;3.160;2024-02-23T08:52:41;4.17;;;1.50;;
11921;SDS011;6021;51.182;3.160;2024-02-23T08:55:09;5.13;;;1.50;;
11921;SDS011;6021;51.182;3.160;2024-02-23T08:57:38;6.93;;;1.23;;
11921;SDS011;6021;51.182;3.160;2024-02-23T09:00:07;3.77;;;1.50;;
11921;SDS011;6021;51.182;3.160;2024-02-23T09:02:35;4.67;;;1.43;;
11921;SDS011;6021;51.182;3.160;2024-02-23T09:05:04;2.63;;;1.50;;
11921;SDS011;6021;51.182;3.160;2024-02-23T09:07:33;3.53;;;1.50;;
11921;SDS011;6021;51.182;3.160;2024-02-23T09:10:02;6.30;;;1.70;;
11921;SDS011;6021;51.182;3.160;2024-02-23T09:12:31;5.63;;;1.93;;
11921;SDS011;6021;51.182;3.160;2024-02-23T09:15:00;3.10;;;1.40;;
11921;SDS011;6021;51.182;3.160;2024-02-23T09:17:29;1.97;;;1.10;;
11921;SDS011;6021;51.182;3.160;2024-02-23T09:19:57;3.13;;;1.20;;
11921;SDS011;6021;51.182;3.160;2024-02-23T09:22:26;1.80;;;1.30;;
11921;SDS011;6021;51.182;3.160;2024-02-23T09:24:54;2.80;;;1.17;;
11921;SDS011;6021;51.182;3.160;2024-02-23T09:27:23;2.20;;;1.10;;
11921;SDS011;6021;51.182;3.160;2024-02-23T09:29:51;2.07;;;1.20;;
11921;SDS011;6021;51.182;3.160;2024-02-23T09:32:19;3.57;;;1.33;;
11921;SDS011;6021;51.182;3.160;2024-02-23T09:34:48;2.37;;;0.90;;
11921;SDS011;6021;51.182;3.160;2024-02-23T09:37:16;1.77;;;0.93;;
11921;SDS011;6021;51.182;3.160;2024-02-23T09:39:45;3.50;;;1.10;;
11921;SDS011;6021;51.182;3.160;2024-02-23T09:42:13;1.57;;;1.07;;
11921;SDS011;6021;51.182;3.160;2024-02-23T09:44:42;2.07;;;1.30;;
11921;SDS011;6021;51.182;3.160;2024-02-23T09:47:13;2.70;;;1.27;;
11921;SDS011;6021;51.182;3.160;2024-02-23T09:49:41;1.77;;;1.30;;
11921;SDS011;6021;51.182;3.160;2024-02-23T09:52:13;3.17;;;1.60;;
11921;SDS011;6021;51.182;3.160;2024-02-23T09:54:41;2.20;;;1.30;;
11921;SDS011;6021;51.182;3.160;2024-02-23T09:57:10;3.17;;;1.40;;
11921;SDS011;6021;51.182;3.160;2024-02-23T09:59:38;2.27;;;1.30;;
11921;SDS011;6021;51.182;3.160;2024-02-23T10:02:11;3.53;;;1.70;;
11921;SDS011;6021;51.182;3.160;2024-02-23T10:04:43;4.63;;;1.67;;
11921;SDS011;6021;51.182;3.160;2024-02-23T10:07:15;6.33;;;1.70;;
11921;SDS011;6021;51.182;3.160;2024-02-23T10:09:43;5.37;;;1.60;;
11921;SDS011;6021;51.182;3.160;2024-02-23T10:12:12;2.00;;;1.40;;
11921;SDS011;6021;51.182;3.160;2024-02-23T10:14:42;4.13;;;1.50;;
11921;SDS011;6021;51.182;3.160;2024-02-23T10:17:10;3.73;;;1.90;;
11921;SDS011;6021;51.182;3.160;2024-02-23T10:19:39;2.10;;;1.60;;
11921;SDS011;6021;51.182;3.160;2024-02-23T10:22:08;3.53;;;1.70;;
11921;SDS011;6021;51.182;3.160;2024-02-23T10:24:38;3.83;;;1.50;;
11921;SDS011;6021;51.182;3.160;2024-02-23T10:27:06;5.77;;;1.70;;
11921;SDS011;6021;51.182;3.160;2024-02-23T10:29:34;4.47;;;1.50;;
11921;SDS011;6021;51.182;3.160;2024-02-23T10:32:03;2.73;;;1.60;;
11921;SDS011;6021;51.182;3.160;2024-02-23T10:34:33;3.73;;;1.53;;
11921;SDS011;6021;51.182;3.160;2024-02-23T10:37:04;3.53;;;1.60;;
11921;SDS011;6021;51.182;3.160;2024-02-23T10:39:35;3.27;;;1.50;;
11921;SDS011;6021;51.182;3.160;2024-02-23T10:42:07;2.60;;;1.57;;
11921;SDS011;6021;51.182;3.160;2024-02-23T10:44:39;2.20;;;1.33;;
11921;SDS011;6021;51.182;3.160;2024-02-23T10:47:07;2.40;;;1.23;;
11921;SDS011;6021;51.182;3.160;2024-02-23T10:49:36;2.33;;;1.00;;
11921;SDS011;6021;51.182;3.160;2024-02-23T10:52:07;2.00;;;1.30;;
11921;SDS011;6021;51.182;3.160;2024-02-23T10:54:38;3.87;;;1.20;;
11921;SDS011;6021;51.182;3.160;2024-02-23T10:57:07;1.83;;;1.00;;
11921;SDS011;6021;51.182;3.160;2024-02-23T10:59:36;1.37;;;0.90;;
11921;SDS011;6021;51.182;3.160;2024-02-23T11:02:05;1.57;;;1.00;;
11921;SDS011;6021;51.182;3.160;2024-02-23T11:04:34;1.37;;;0.80;;
11921;SDS011;6021;51.182;3.160;2024-02-23T11:07:04;1.23;;;0.80;;
11921;SDS011;6021;51.182;3.160;2024-02-23T11:09:35;0.80;;;0.70;;
11921;SDS011;6021;51.182;3.160;2024-02-23T11:12:03;0.63;;;0.60;;
11921;SDS011;6021;51.182;3.160;2024-02-23T11:14:34;0.70;;;0.70;;
11921;SDS011;6021;51.182;3.160;2024-02-23T11:17:03;0.70;;;0.60;;
11921;SDS011;6021;51.182;3.160;2024-02-23T11:19:33;0.60;;;0.60;;
11921;SDS011;6021;51.182;3.160;2024-02-23T11:22:02;0.60;;;0.60;;
11921;SDS011;6021;51.182;3.160;2024-02-23T11:24:31;0.80;;;0.80;;
11921;SDS011;6021;51.182;3.160;2024-02-23T11:27:01;0.77;;;0.70;;
11921;SDS011;6021;51.182;3.160;2024-02-23T11:29:31;1.13;;;0.70;;
11921;SDS011;6021;51.182;3.160;2024-02-23T11:32:00;1.70;;;0.70;;
11921;SDS011;6021;51.182;3.160;2024-02-23T11:34:30;1.70;;;0.93;;
11921;SDS011;6021;51.182;3.160;2024-02-23T11:36:58;1.20;;;0.70;;
11921;SDS011;6021;51.182;3.160;2024-02-23T11:39:30;1.40;;;0.87;;
11921;SDS011;6021;51.182;3.160;2024-02-23T11:41:58;1.00;;;0.80;;
11921;SDS011;6021;51.182;3.160;2024-02-23T11:44:27;2.17;;;1.00;;
11921;SDS011;6021;51.182;3.160;2024-02-23T11:46:56;1.57;;;0.80;;
11921;SDS011;6021;51.182;3.160;2024-02-23T11:49:29;0.80;;;0.80;;
11921;SDS011;6021;51.182;3.160;2024-02-23T11:51:58;1.13;;;1.00;;
11921;SDS011;6021;51.182;3.160;2024-02-23T11:54:26;1.33;;;1.00;;
11921;SDS011;6021;51.182;3.160;2024-02-23T11:56:55;1.03;;;1.00;;
11921;SDS011;6021;51.182;3.160;2024-02-23T11:59:24;0.90;;;0.90;;
11921;SDS011;6021;51.182;3.160;2024-02-23T12:01:53;1.90;;;1.27;;
11921;SDS011;6021;51.182;3.160;2024-02-23T12:04:21;1.20;;;1.10;;
11921;SDS011;6021;51.182;3.160;2024-02-23T12:06:50;2.73;;;1.20;;
11921;SDS011;6021;51.182;3.160;2024-02-23T12:09:19;1.40;;;1.20;;
11921;SDS011;6021;51.182;3.160;2024-02-23T12:11:48;3.37;;;1.50;;
11921;SDS011;6021;51.182;3.160;2024-02-23T12:14:16;2.73;;;1.40;;
11921;SDS011;6021;51.182;3.160;2024-02-23T12:16:44;1.60;;;1.13;;
11921;SDS011;6021;51.182;3.160;2024-02-23T12:19:13;2.97;;;1.53;;
11921;SDS011;6021;51.182;3.160;2024-02-23T12:21:45;1.77;;;1.30;;
11921;SDS011;6021;51.182;3.160;2024-02-23T12:24:13;2.50;;;1.40;;
11921;SDS011;6021;51.182;3.160;2024-02-23T12:26:41;2.07;;;1.57;;
11921;SDS011;6021;51.182;3.160;2024-02-23T12:29:09;4.27;;;1.40;;
11921;SDS011;6021;51.182;3.160;2024-02-23T12:31:38;3.40;;;1.53;;
11921;SDS011;6021;51.182;3.160;2024-02-23T12:34:06;1.73;;;1.30;;
11921;SDS011;6021;51.182;3.160;2024-02-23T12:36:37;2.40;;;1.47;;
11921;SDS011;6021;51.182;3.160;2024-02-23T12:39:07;4.03;;;1.67;;
11921;SDS011;6021;51.182;3.160;2024-02-23T12:41:35;2.97;;;1.50;;
11921;SDS011;6021;51.182;3.160;2024-02-23T12:44:04;3.00;;;1.63;;
11921;SDS011;6021;51.182;3.160;2024-02-23T12:46:33;4.00;;;1.60;;
11921;SDS011;6021;51.182;3.160;2024-02-23T12:49:01;2.87;;;1.50;;
11921;SDS011;6021;51.182;3.160;2024-02-23T12:51:29;2.57;;;1.70;;
11921;SDS011;6021;51.182;3.160;2024-02-23T12:53:59;2.67;;;1.70;;
11921;SDS011;6021;51.182;3.160;2024-02-23T12:56:27;2.87;;;1.90;;
11921;SDS011;6021;51.182;3.160;2024-02-23T12:58:56;2.93;;;1.83;;
11921;SDS011;6021;51.182;3.160;2024-02-23T13:01:26;1.90;;;1.80;;
11921;SDS011;6021;51.182;3.160;2024-02-23T13:03:54;4.13;;;2.00;;
11921;SDS011;6021;51.182;3.160;2024-02-23T13:06:22;2.10;;;1.73;;
11921;SDS011;6021;51.182;3.160;2024-02-23T13:08:51;3.90;;;2.10;;
11921;SDS011;6021;51.182;3.160;2024-02-23T13:11:20;3.63;;;1.80;;
11921;SDS011;6021;51.182;3.160;2024-02-23T13:13:48;4.20;;;2.07;;
11921;SDS011;6021;51.182;3.160;2024-02-23T13:16:16;3.63;;;2.20;;
11921;SDS011;6021;51.182;3.160;2024-02-23T13:18:46;2.93;;;1.97;;
11921;SDS011;6021;51.182;3.160;2024-02-23T13:21:14;2.93;;;1.90;;
11921;SDS011;6021;51.182;3.160;2024-02-23T13:23:42;4.20;;;2.00;;
11921;SDS011;6021;51.182;3.160;2024-02-23T13:26:11;2.90;;;2.00;;
11921;SDS011;6021;51.182;3.160;2024-02-23T13:28:43;3.30;;;2.10;;
11921;SDS011;6021;51.182;3.160;2024-02-23T13:31:12;3.77;;;1.80;;
11921;SDS011;6021;51.182;3.160;2024-02-23T13:33:41;3.93;;;1.83;;
11921;SDS011;6021;51.182;3.160;2024-02-23T13:36:11;2.37;;;1.50;;
11921;SDS011;6021;51.182;3.160;2024-02-23T13:38:39;3.87;;;1.67;;
11921;SDS011;6021;51.182;3.160;2024-02-23T13:41:08;2.37;;;1.40;;
11921;SDS011;6021;51.182;3.160;2024-02-23T13:43:38;1.67;;;1.40;;
11921;SDS011;6021;51.182;3.160;2024-02-23T13:46:06;1.33;;;1.23;;
11921;SDS011;6021;51.182;3.160;2024-02-23T13:48:35;1.83;;;1.20;;
11921;SDS011;6021;51.182;3.160;2024-02-23T13:51:04;2.23;;;1.37;;
11921;SDS011;6021;51.182;3.160;2024-02-23T13:53:33;1.43;;;1.20;;
11921;SDS011;6021;51.182;3.160;2024-02-23T13:56:03;2.93;;;1.30;;
11921;SDS011;6021;51.182;3.160;2024-02-23T13:58:34;1.23;;;1.10;;
11921;SDS011;6021;51.182;3.160;2024-02-23T14:01:01;2.00;;;1.20;;
11921;SDS011;6021;51.182;3.160;2024-02-23T14:03:30;1.53;;;1.10;;
11921;SDS011;6021;51.182;3.160;2024-02-23T14:05:58;1.60;;;1.10;;
11921;SDS011;6021;51.182;3.160;2024-02-23T14:08:28;1.40;;;1.30;;
11921;SDS011;6021;51.182;3.160;2024-02-23T14:10:56;2.30;;;1.40;;
11921;SDS011;6021;51.182;3.160;2024-02-23T14:13:25;1.83;;;1.33;;
11921;SDS011;6021;51.182;3.160;2024-02-23T14:15:53;2.17;;;1.20;;
11921;SDS011;6021;51.182;3.160;2024-02-23T14:18:21;0.80;;;0.80;;
11921;SDS011;6021;51.182;3.160;2024-02-23T14:20:50;0.83;;;0.83;;
11921;SDS011;6021;51.182;3.160;2024-02-23T14:23:20;1.47;;;1.00;;
11921;SDS011;6021;51.182;3.160;2024-02-23T14:25:48;1.53;;;1.00;;
11921;SDS011;6021;51.182;3.160;2024-02-23T14:28:18;2.50;;;1.10;;
11921;SDS011;6021;51.182;3.160;2024-02-23T14:30:46;1.10;;;1.00;;
11921;SDS011;6021;51.182;3.160;2024-02-23T14:33:15;2.00;;;1.10;;
11921;SDS011;6021;51.182;3.160;2024-02-23T14:35:43;0.83;;;0.83;;
11921;SDS011;6021;51.182;3.160;2024-02-23T14:38:12;1.57;;;0.93;;
11921;SDS011;6021;51.182;3.160;2024-02-23T14:40:40;0.73;;;0.73;;
11921;SDS011;6021;51.182;3.160;2024-02-23T14:43:08;0.90;;;0.80;;
11921;SDS011;6021;51.182;3.160;2024-02-23T14:45:37;2.00;;;1.10;;
11921;SDS011;6021;51.182;3.160;2024-02-23T14:48:05;1.50;;;1.20;;
11921;SDS011;6021;51.182;3.160;2024-02-23T14:50:34;1.23;;;0.90;;
11921;SDS011;6021;51.182;3.160;2024-02-23T14:53:02;2.07;;;1.10;;
11921;SDS011;6021;51.182;3.160;2024-02-23T14:55:30;1.20;;;1.10;;
11921;SDS011;6021;51.182;3.160;2024-02-23T14:57:59;1.20;;;1.10;;
11921;SDS011;6021;51.182;3.160;2024-02-23T15:00:27;1.40;;;0.90;;
11921;SDS011;6021;51.182;3.160;2024-02-23T15:02:56;2.23;;;1.27;;
11921;SDS011;6021;51.182;3.160;2024-02-23T15:05:25;2.30;;;1.43;;
11921;SDS011;6021;51.182;3.160;2024-02-23T15:07:53;1.70;;;1.30;;
11921;SDS011;6021;51.182;3.160;2024-02-23T15:10:21;1.80;;;1.30;;